Aeroporto :
LOGIN :

Iscrizione | Disclaimer

   EN    FR    IT 

 










Sommario :    VFR   VFR Marginale   IFR   IFR Intensivo   IFR Molto Intensivo
Visibilità : 
Base nubi : 
>= 8 km
>= 3000ft
5 / 8 km
1000 / 3000 ft
1500m / 5 km
500 / 1000 ft
800 / 1500m
200 / 500 ft
< 800m
< 200 ft
Simboli :   Temporali  Nebbia  Neve Forte  Precipitazioni Forti  Vento > 20 kt
SIGMETs :   Varie  Temporali  Ghiacco  Turbolenza  Onda orograficha  Ceneri Vulcaniche







- Altitudine del aeroporto : 791 ft
- Codice IATA : KRK


EPKK - Krakow-Balice

ULTIMO METAR :
  • 201630Z 32013KT CAVOK 18/M05 Q1025

METARs OBSOLETI :
  • 201600Z 32011KT 290V350 CAVOK 19/M09 Q1025
  • 201530Z 34012KT 300V360 CAVOK 20/M05 Q1025
  • 201500Z 32010KT CAVOK 20/M04 Q1025
  • 201430Z 31012KT CAVOK 20/M09 Q1025
  • 201400Z 33010KT 300V020 CAVOK 21/M06 Q1026

TAF TAF EPKK
Valido dal 20 a 15 ore il 21 a 15 ore UTC


201430Z 2015/2115 32010KT CAVOK
BECMG 2019/2022 VRB02KT
BECMG 2106/2109 34010KT
Nessun NOTAM noto per questo aeroporto.



MetMap, La meteo Aeronautica in un colpo d'occhio ! - Copyright ORBIFLY Dicembre 2007 - Disclaimer

ORBIFLY MET'MAP TEAM :

Programmazione e sviluppo : Alexandra Zaïnal
Concezione e sviluppo : Baudouin d'Aumeries
Co-Programmazione e sviluppo : Marc-Olivier Méhu
Supporto tecnico e logistico : Manuel Goepfert
Aiuto per la traduzione : Arnaldo La Scala

Contatto : metmap@orbifly.com




FONTI E CREDITI :

   NOAA